createdAt,value
2019-01-05T11:25:23.739Z,97960.23
2019-01-05T11:28:46.281Z,97958.13
2019-01-05T11:31:54.349Z,97950.45
2019-01-05T11:35:31.256Z,97948.00
2019-01-05T11:39:23.202Z,97941.64
2019-01-05T11:43:04.311Z,97933.89
2019-01-05T11:46:47.621Z,97933.05
2019-01-05T11:50:15.692Z,97930.11
2019-01-05T11:53:38.731Z,97924.53
2019-01-05T11:57:38.040Z,97922.38
2019-01-05T12:01:06.316Z,97921.52
2019-01-05T12:04:47.769Z,97913.33
2019-01-05T12:08:38.129Z,97910.74
2019-01-05T12:12:06.465Z,97900.39
2019-01-05T12:15:42.368Z,97892.98
2019-01-05T12:19:20.452Z,97897.63
2019-01-05T12:22:57.633Z,97896.69
2019-01-05T12:26:17.319Z,97890.70
2019-01-05T12:30:15.767Z,97882.99
2019-01-05T12:33:54.547Z,97875.20
2019-01-05T12:37:40.873Z,97871.58
2019-01-05T12:41:00.163Z,97874.98
2019-01-05T12:44:52.699Z,97862.48
2019-01-05T12:48:20.386Z,97855.20
2019-01-05T12:51:51.375Z,97858.59
2019-01-05T12:55:21.906Z,97853.43
2019-01-05T12:58:54.940Z,97863.30
2019-01-05T13:02:18.394Z,97864.99
2019-01-05T13:06:00.887Z,97858.47
2019-01-05T13:09:33.831Z,97858.40
2019-01-05T13:13:13.347Z,97859.25
2019-01-05T13:16:42.643Z,97855.77
2019-01-05T13:20:03.854Z,97857.88
2019-01-05T13:23:37.984Z,97849.27
2019-01-05T13:26:43.900Z,97850.48
2019-01-05T13:30:16.767Z,97846.19
2019-01-05T13:33:49.283Z,97847.42
2019-01-05T13:37:22.535Z,97847.42
2019-01-05T13:41:12.070Z,97846.09
2019-01-05T13:44:53.187Z,97842.59
2019-01-05T13:48:17.907Z,97842.63
2019-01-05T13:51:47.169Z,97841.72
2019-01-05T13:54:47.968Z,97837.27
2019-01-05T13:57:54.512Z,97837.27
2019-01-05T14:00:48.988Z,97834.69
2019-01-05T14:03:36.368Z,97830.41
2019-01-05T14:06:23.659Z,97830.34
2019-01-05T14:09:30.238Z,97826.09
2019-01-05T14:12:24.314Z,97820.51
2019-01-05T14:15:14.749Z,97819.19
2019-01-05T14:18:01.734Z,97817.47
2019-01-05T14:20:52.913Z,97815.78
2019-01-05T14:23:47.426Z,97821.88
2019-01-05T14:26:38.525Z,97819.30
2019-01-05T14:29:25.856Z,97819.19
2019-01-05T14:32:13.301Z,97807.63
2019-01-05T14:35:04.769Z,97805.05
2019-01-05T14:37:51.735Z,97801.66
2019-01-05T14:40:40.097Z,97802.95
2019-01-05T14:43:28.763Z,97794.36
2019-01-05T14:46:17.205Z,97794.84
2019-01-05T14:49:04.168Z,97788.88
2019-01-05T14:51:55.551Z,97790.57
2019-01-05T14:54:49.844Z,97788.41
2019-01-05T14:57:37.196Z,97787.09
2019-01-05T15:00:26.850Z,97787.52
2019-01-05T15:03:33.627Z,97787.99
2019-01-05T15:06:20.593Z,97787.11
2019-01-05T15:09:18.090Z,97785.42
2019-01-05T15:12:24.545Z,97782.45
2019-01-05T15:15:21.670Z,97779.00
2019-01-05T15:18:15.933Z,97776.41
2019-01-05T15:20:58.709Z,97777.61
2019-01-05T15:23:38.644Z,97779.29
2019-01-05T15:26:25.905Z,97775.81
2019-01-05T15:29:23.320Z,97777.92
2019-01-05T15:32:20.842Z,97784.81
2019-01-05T15:35:03.389Z,97787.80
2019-01-05T15:38:06.978Z,97787.38
2019-01-05T15:40:54.230Z,97786.05
2019-01-05T15:43:41.177Z,97781.30
2019-01-05T15:46:42.645Z,97787.28
2019-01-05T15:49:40.722Z,97784.64
2019-01-05T15:52:28.204Z,97783.73
2019-01-05T15:55:29.195Z,97783.69
2019-01-05T15:58:23.539Z,97787.48
2019-01-05T16:01:27.383Z,97786.45
2019-01-05T16:04:34.114Z,97807.04
2019-01-05T16:07:21.108Z,97791.48
2019-01-05T16:10:08.348Z,97794.05
2019-01-05T16:13:08.939Z,97790.42
2019-01-05T16:15:57.025Z,97796.00
2019-01-05T16:18:44.066Z,97788.66
2019-01-05T16:21:38.794Z,97788.19
2019-01-05T16:24:33.206Z,97788.19
2019-01-05T16:27:33.756Z,97788.47
2019-01-05T16:30:34.044Z,97785.00
2019-01-05T16:33:40.817Z,97787.13
2019-01-05T16:36:38.053Z,97790.90
2019-01-05T16:39:32.447Z,97790.92
2019-01-05T16:42:26.889Z,97789.61
2019-01-05T16:45:11.330Z,97787.80
2019-01-05T16:48:05.686Z,97788.63
2019-01-05T16:50:52.999Z,97796.34
2019-01-05T16:53:46.195Z,97786.44
2019-01-05T16:56:49.981Z,97790.23
2019-01-05T16:59:44.022Z,97786.36
2019-01-05T17:02:32.453Z,97790.97
2019-01-05T17:05:19.599Z,97790.52
2019-01-05T17:08:07.948Z,97793.51
2019-01-05T17:11:08.382Z,97788.80
2019-01-05T17:14:11.781Z,97787.58
2019-01-05T17:17:02.991Z,97791.80
2019-01-05T17:19:50.172Z,97792.58
2019-01-05T17:22:32.758Z,97786.93
2019-01-05T17:25:24.415Z,97790.27
2019-01-05T17:28:12.768Z,97796.70
2019-01-05T17:30:54.725Z,97788.63
2019-01-05T17:33:54.128Z,97797.30
2019-01-05T17:36:47.235Z,97799.91
2019-01-05T17:39:34.181Z,97785.67
2019-01-05T17:42:16.450Z,97789.52
2019-01-05T17:45:04.846Z,97790.80
2019-01-05T17:47:51.753Z,97786.97
2019-01-05T17:50:38.786Z,97789.98
2019-01-05T17:53:33.269Z,97771.53
2019-01-05T17:56:34.047Z,97771.53
2019-01-05T17:59:26.396Z,97765.06
2019-01-05T18:02:21.956Z,97765.45
2019-01-05T18:05:19.516Z,97767.20
2019-01-05T18:08:07.852Z,97758.11
2019-01-05T18:10:55.385Z,97757.61
2019-01-05T18:13:46.859Z,97751.66
2019-01-05T18:16:47.477Z,97749.45
2019-01-05T18:19:50.902Z,97743.84
2019-01-05T18:22:45.587Z,97744.27
2019-01-05T18:25:34.583Z,97743.31
2019-01-05T18:28:27.124Z,97741.15
2019-01-05T18:31:14.660Z,97735.53
2019-01-05T18:34:03.937Z,97730.82
2019-01-05T18:36:45.231Z,97741.95
2019-01-05T18:39:39.741Z,97742.36
2019-01-05T18:42:25.023Z,97739.73
2019-01-05T18:45:12.170Z,97732.17
2019-01-05T18:48:15.626Z,97740.83
2019-01-05T18:51:02.980Z,97744.28
2019-01-05T18:53:51.838Z,97740.91
2019-01-05T18:56:35.970Z,97736.66
2019-01-05T18:59:30.269Z,97737.56
2019-01-05T19:02:17.269Z,97740.50
2019-01-05T19:05:24.417Z,97744.75
2019-01-05T19:08:11.518Z,97738.75
2019-01-05T19:10:58.597Z,97736.95
2019-01-05T19:13:45.635Z,97735.92
2019-01-05T19:16:38.557Z,97746.98
2019-01-05T19:19:33.121Z,97751.69
2019-01-05T19:22:27.740Z,97748.23
2019-01-05T19:25:22.075Z,97746.02
2019-01-05T19:28:05.298Z,97746.59
2019-01-05T19:31:02.853Z,97746.16
2019-01-05T19:34:09.554Z,97746.92
2019-01-05T19:36:55.458Z,97746.04
2019-01-05T19:40:02.519Z,97743.32
2019-01-05T19:42:56.826Z,97739.58
2019-01-05T19:45:51.361Z,97739.67
2019-01-05T19:48:46.706Z,97731.98
2019-01-05T19:51:34.027Z,97735.88
2019-01-05T19:54:25.775Z,97731.10
2019-01-05T19:57:29.562Z,97724.58
2019-01-05T20:00:16.750Z,97726.24
2019-01-05T20:03:13.042Z,97722.95
2019-01-05T20:05:59.641Z,97727.19
2019-01-05T20:08:46.723Z,97728.08
2019-01-05T20:11:37.916Z,97728.08
2019-01-05T20:14:29.348Z,97729.87
2019-01-05T20:17:21.277Z,97720.00
2019-01-05T20:20:18.574Z,97721.28
2019-01-05T20:23:09.831Z,97720.90
2019-01-05T20:25:55.551Z,97713.59
2019-01-05T20:28:49.815Z,97715.30
2019-01-05T20:31:56.330Z,97716.16
2019-01-05T20:34:44.777Z,97715.34
2019-01-05T20:37:32.413Z,97711.43
2019-01-05T20:40:38.993Z,97710.92
2019-01-05T20:43:27.346Z,97707.99
2019-01-05T20:46:18.541Z,97715.23
2019-01-05T20:49:05.990Z,97710.92
2019-01-05T20:52:06.228Z,97713.42
2019-01-05T20:55:06.635Z,97713.42
2019-01-05T20:58:08.838Z,97708.22
2019-01-05T21:01:15.860Z,97703.52
2019-01-05T21:04:10.315Z,97703.52
2019-01-05T21:07:07.780Z,97694.86
2019-01-05T21:10:14.298Z,97694.03
2019-01-05T21:13:01.652Z,97681.21
2019-01-05T21:16:05.816Z,97681.21
2019-01-05T21:18:54.154Z,97675.72
2019-01-05T21:21:48.717Z,97676.98
2019-01-05T21:24:35.775Z,97661.95
2019-01-05T21:27:22.720Z,97661.95
2019-01-05T21:30:11.065Z,97661.91
2019-01-05T21:33:05.941Z,97645.03
2019-01-05T21:36:03.596Z,97645.03
2019-01-05T21:39:07.091Z,97649.21
2019-01-05T21:41:58.512Z,97643.58
2019-01-05T21:44:44.742Z,97644.55
2019-01-05T21:47:42.562Z,97634.21
2019-01-05T21:50:48.486Z,97637.59
2019-01-05T21:53:35.885Z,97637.23
2019-01-05T21:56:27.326Z,97628.73
2019-01-05T21:59:11.213Z,97632.63
2019-01-05T22:02:02.675Z,97628.23
2019-01-05T22:04:49.878Z,97627.79
2019-01-05T22:07:41.172Z,97611.95
2019-01-05T22:10:36.198Z,97612.18
2019-01-05T22:13:24.634Z,97608.06
2019-01-05T22:16:11.980Z,97608.06
2019-01-05T22:19:03.154Z,97596.50
2019-01-05T22:22:00.626Z,97596.78
2019-01-05T22:24:53.272Z,97577.19
2019-01-05T22:27:40.577Z,97567.41
2019-01-05T22:30:40.085Z,97567.41
2019-01-05T22:33:22.707Z,97561.94
2019-01-05T22:36:29.520Z,97560.19
2019-01-05T22:39:17.860Z,97546.48
2019-01-05T22:42:05.001Z,97546.48
2019-01-05T22:45:05.563Z,97539.13
2019-01-05T22:47:56.924Z,97538.08
2019-01-05T22:50:51.312Z,97543.28
2019-01-05T22:53:51.773Z,97543.28
2019-01-05T22:56:38.776Z,97537.69
2019-01-05T22:59:42.207Z,97537.69
2019-01-05T23:02:33.223Z,97527.23
2019-01-05T23:05:20.574Z,97523.64
2019-01-05T23:08:07.603Z,97523.64
2019-01-05T23:10:55.102Z,97519.23
2019-01-05T23:13:46.292Z,97514.16
2019-01-05T23:16:52.844Z,97514.16
2019-01-05T23:19:39.817Z,97528.09
2019-01-05T23:22:33.118Z,97519.06
2019-01-05T23:25:33.408Z,97522.55
2019-01-05T23:28:40.032Z,97522.55
2019-01-05T23:31:37.738Z,97529.17
2019-01-05T23:34:34.848Z,97532.99
2019-01-05T23:37:32.267Z,97532.99
2019-01-05T23:40:19.672Z,97529.13
2019-01-05T23:43:13.857Z,97532.06
2019-01-05T23:46:02.269Z,97526.62
2019-01-05T23:48:59.733Z,97510.36
2019-01-05T23:51:46.781Z,97510.67
2019-01-05T23:54:53.323Z,97511.67
2019-01-05T23:57:41.847Z,97502.71
